sensor_id;sensor_type;location;lat;lon;timestamp;P1;durP1;ratioP1;P2;durP2;ratioP2
12480;SDS011;6305;48.398;11.762;2022-10-16T00:00:20;15.05;;;9.07;;
12480;SDS011;6305;48.398;11.762;2022-10-16T00:02:47;11.73;;;8.45;;
12480;SDS011;6305;48.398;11.762;2022-10-16T00:05:14;12.25;;;8.35;;
12480;SDS011;6305;48.398;11.762;2022-10-16T00:07:40;11.48;;;8.50;;
12480;SDS011;6305;48.398;11.762;2022-10-16T00:10:07;14.02;;;8.20;;
12480;SDS011;6305;48.398;11.762;2022-10-16T00:12:36;13.32;;;8.40;;
12480;SDS011;6305;48.398;11.762;2022-10-16T00:15:02;13.13;;;8.48;;
12480;SDS011;6305;48.398;11.762;2022-10-16T00:17:30;15.23;;;8.90;;
12480;SDS011;6305;48.398;11.762;2022-10-16T00:19:57;14.25;;;9.07;;
12480;SDS011;6305;48.398;11.762;2022-10-16T00:22:24;14.48;;;8.93;;
12480;SDS011;6305;48.398;11.762;2022-10-16T00:24:51;11.93;;;8.38;;
12480;SDS011;6305;48.398;11.762;2022-10-16T00:27:18;14.38;;;8.80;;
12480;SDS011;6305;48.398;11.762;2022-10-16T00:29:49;10.52;;;7.82;;
12480;SDS011;6305;48.398;11.762;2022-10-16T00:32:16;13.10;;;8.27;;
12480;SDS011;6305;48.398;11.762;2022-10-16T00:34:42;12.05;;;8.13;;
12480;SDS011;6305;48.398;11.762;2022-10-16T00:37:09;13.90;;;7.70;;
12480;SDS011;6305;48.398;11.762;2022-10-16T00:39:36;12.30;;;7.63;;
12480;SDS011;6305;48.398;11.762;2022-10-16T00:42:03;11.50;;;8.30;;
12480;SDS011;6305;48.398;11.762;2022-10-16T00:44:47;12.98;;;8.00;;
12480;SDS011;6305;48.398;11.762;2022-10-16T00:47:18;14.18;;;8.05;;
12480;SDS011;6305;48.398;11.762;2022-10-16T00:49:48;13.23;;;8.38;;
12480;SDS011;6305;48.398;11.762;2022-10-16T00:52:18;13.27;;;7.78;;
12480;SDS011;6305;48.398;11.762;2022-10-16T00:54:45;13.43;;;8.60;;
12480;SDS011;6305;48.398;11.762;2022-10-16T00:57:13;12.40;;;8.25;;
12480;SDS011;6305;48.398;11.762;2022-10-16T00:59:40;13.25;;;8.40;;
12480;SDS011;6305;48.398;11.762;2022-10-16T01:02:10;13.65;;;8.15;;
12480;SDS011;6305;48.398;11.762;2022-10-16T01:04:40;11.90;;;8.23;;
12480;SDS011;6305;48.398;11.762;2022-10-16T01:07:12;14.55;;;9.88;;
12480;SDS011;6305;48.398;11.762;2022-10-16T01:09:45;19.52;;;11.60;;
12480;SDS011;6305;48.398;11.762;2022-10-16T01:12:20;23.52;;;13.48;;
12480;SDS011;6305;48.398;11.762;2022-10-16T01:14:53;22.90;;;14.45;;
12480;SDS011;6305;48.398;11.762;2022-10-16T01:17:25;25.55;;;14.52;;
12480;SDS011;6305;48.398;11.762;2022-10-16T01:20:03;22.38;;;14.48;;
12480;SDS011;6305;48.398;11.762;2022-10-16T01:22:40;22.17;;;13.70;;
12480;SDS011;6305;48.398;11.762;2022-10-16T01:25:16;23.00;;;14.15;;
12480;SDS011;6305;48.398;11.762;2022-10-16T01:27:51;21.23;;;13.30;;
12480;SDS011;6305;48.398;11.762;2022-10-16T01:30:20;24.52;;;13.73;;
12480;SDS011;6305;48.398;11.762;2022-10-16T01:32:50;19.70;;;12.50;;
12480;SDS011;6305;48.398;11.762;2022-10-16T01:35:23;19.75;;;11.90;;
12480;SDS011;6305;48.398;11.762;2022-10-16T01:37:53;20.00;;;12.18;;
12480;SDS011;6305;48.398;11.762;2022-10-16T01:40:25;20.88;;;12.63;;
12480;SDS011;6305;48.398;11.762;2022-10-16T01:42:55;22.30;;;12.30;;
12480;SDS011;6305;48.398;11.762;2022-10-16T01:45:25;19.80;;;12.52;;
12480;SDS011;6305;48.398;11.762;2022-10-16T01:47:56;19.10;;;11.95;;
12480;SDS011;6305;48.398;11.762;2022-10-16T01:50:25;19.13;;;11.93;;
12480;SDS011;6305;48.398;11.762;2022-10-16T01:52:53;21.08;;;13.02;;
12480;SDS011;6305;48.398;11.762;2022-10-16T01:55:24;16.05;;;11.13;;
12480;SDS011;6305;48.398;11.762;2022-10-16T01:57:56;15.05;;;11.23;;
12480;SDS011;6305;48.398;11.762;2022-10-16T02:00:25;18.80;;;12.45;;
12480;SDS011;6305;48.398;11.762;2022-10-16T02:02:53;21.83;;;12.90;;
12480;SDS011;6305;48.398;11.762;2022-10-16T02:05:22;20.85;;;13.43;;
12480;SDS011;6305;48.398;11.762;2022-10-16T02:07:52;19.50;;;13.07;;
12480;SDS011;6305;48.398;11.762;2022-10-16T02:10:20;21.65;;;13.02;;
12480;SDS011;6305;48.398;11.762;2022-10-16T02:12:48;19.92;;;13.45;;
12480;SDS011;6305;48.398;11.762;2022-10-16T02:15:22;20.15;;;11.93;;
12480;SDS011;6305;48.398;11.762;2022-10-16T02:17:49;19.48;;;11.95;;
12480;SDS011;6305;48.398;11.762;2022-10-16T02:20:15;19.08;;;11.98;;
12480;SDS011;6305;48.398;11.762;2022-10-16T02:22:43;18.58;;;11.82;;
12480;SDS011;6305;48.398;11.762;2022-10-16T02:25:15;24.95;;;13.02;;
12480;SDS011;6305;48.398;11.762;2022-10-16T02:27:46;20.90;;;11.68;;
12480;SDS011;6305;48.398;11.762;2022-10-16T02:30:19;20.58;;;12.60;;
12480;SDS011;6305;48.398;11.762;2022-10-16T02:32:51;20.98;;;12.40;;
12480;SDS011;6305;48.398;11.762;2022-10-16T02:35:20;19.02;;;12.00;;
12480;SDS011;6305;48.398;11.762;2022-10-16T02:37:48;19.77;;;11.88;;
12480;SDS011;6305;48.398;11.762;2022-10-16T02:40:17;18.63;;;11.48;;
12480;SDS011;6305;48.398;11.762;2022-10-16T02:42:44;17.40;;;10.48;;
12480;SDS011;6305;48.398;11.762;2022-10-16T02:45:11;16.88;;;11.48;;
12480;SDS011;6305;48.398;11.762;2022-10-16T02:47:39;16.70;;;10.13;;
12480;SDS011;6305;48.398;11.762;2022-10-16T02:50:06;17.52;;;10.57;;
12480;SDS011;6305;48.398;11.762;2022-10-16T02:52:33;17.23;;;10.55;;
12480;SDS011;6305;48.398;11.762;2022-10-16T02:55:00;16.80;;;10.88;;
12480;SDS011;6305;48.398;11.762;2022-10-16T02:57:26;16.25;;;10.43;;
12480;SDS011;6305;48.398;11.762;2022-10-16T02:59:53;16.02;;;9.98;;
12480;SDS011;6305;48.398;11.762;2022-10-16T03:02:20;16.55;;;9.80;;
12480;SDS011;6305;48.398;11.762;2022-10-16T03:04:48;17.67;;;8.90;;
12480;SDS011;6305;48.398;11.762;2022-10-16T03:07:15;17.90;;;9.20;;
12480;SDS011;6305;48.398;11.762;2022-10-16T03:09:41;14.35;;;8.40;;
12480;SDS011;6305;48.398;11.762;2022-10-16T03:12:08;15.40;;;8.55;;
12480;SDS011;6305;48.398;11.762;2022-10-16T03:14:36;13.93;;;8.93;;
12480;SDS011;6305;48.398;11.762;2022-10-16T03:17:04;18.38;;;10.13;;
12480;SDS011;6305;48.398;11.762;2022-10-16T03:19:31;15.45;;;9.55;;
12480;SDS011;6305;48.398;11.762;2022-10-16T03:21:59;18.63;;;9.55;;
12480;SDS011;6305;48.398;11.762;2022-10-16T03:24:26;15.95;;;8.98;;
12480;SDS011;6305;48.398;11.762;2022-10-16T03:26:53;15.20;;;9.55;;
12480;SDS011;6305;48.398;11.762;2022-10-16T03:29:19;13.88;;;8.75;;
12480;SDS011;6305;48.398;11.762;2022-10-16T03:31:46;14.77;;;9.55;;
12480;SDS011;6305;48.398;11.762;2022-10-16T03:34:14;14.57;;;9.73;;
12480;SDS011;6305;48.398;11.762;2022-10-16T03:36:41;15.82;;;9.80;;
12480;SDS011;6305;48.398;11.762;2022-10-16T03:39:09;15.57;;;10.32;;
12480;SDS011;6305;48.398;11.762;2022-10-16T03:41:36;17.35;;;10.10;;
12480;SDS011;6305;48.398;11.762;2022-10-16T03:44:03;18.10;;;11.02;;
12480;SDS011;6305;48.398;11.762;2022-10-16T03:46:29;17.52;;;10.88;;
12480;SDS011;6305;48.398;11.762;2022-10-16T03:48:56;19.73;;;10.45;;
12480;SDS011;6305;48.398;11.762;2022-10-16T03:51:23;17.92;;;10.55;;
12480;SDS011;6305;48.398;11.762;2022-10-16T03:53:49;19.30;;;10.30;;
12480;SDS011;6305;48.398;11.762;2022-10-16T03:56:17;19.73;;;11.82;;
12480;SDS011;6305;48.398;11.762;2022-10-16T03:58:44;19.90;;;11.98;;
12480;SDS011;6305;48.398;11.762;2022-10-16T04:01:11;19.38;;;12.15;;
12480;SDS011;6305;48.398;11.762;2022-10-16T04:03:37;22.77;;;12.70;;
12480;SDS011;6305;48.398;11.762;2022-10-16T04:06:04;20.27;;;12.65;;
12480;SDS011;6305;48.398;11.762;2022-10-16T04:08:31;22.80;;;13.18;;
12480;SDS011;6305;48.398;11.762;2022-10-16T04:10:59;24.65;;;13.18;;
12480;SDS011;6305;48.398;11.762;2022-10-16T04:13:27;21.77;;;11.88;;
12480;SDS011;6305;48.398;11.762;2022-10-16T04:15:54;19.27;;;11.75;;
12480;SDS011;6305;48.398;11.762;2022-10-16T04:18:21;17.35;;;11.60;;
12480;SDS011;6305;48.398;11.762;2022-10-16T04:20:48;20.27;;;11.57;;
12480;SDS011;6305;48.398;11.762;2022-10-16T04:23:14;17.95;;;11.07;;
12480;SDS011;6305;48.398;11.762;2022-10-16T04:25:41;18.10;;;11.02;;
12480;SDS011;6305;48.398;11.762;2022-10-16T04:28:08;16.70;;;10.07;;
12480;SDS011;6305;48.398;11.762;2022-10-16T04:30:37;16.25;;;9.93;;
12480;SDS011;6305;48.398;11.762;2022-10-16T04:33:04;16.80;;;10.35;;
12480;SDS011;6305;48.398;11.762;2022-10-16T04:35:30;19.63;;;12.27;;
12480;SDS011;6305;48.398;11.762;2022-10-16T04:37:58;22.75;;;12.57;;
12480;SDS011;6305;48.398;11.762;2022-10-16T04:40:24;21.13;;;12.38;;
12480;SDS011;6305;48.398;11.762;2022-10-16T04:42:51;16.27;;;10.18;;
12480;SDS011;6305;48.398;11.762;2022-10-16T04:45:18;14.77;;;10.10;;
12480;SDS011;6305;48.398;11.762;2022-10-16T04:47:46;14.90;;;10.25;;
12480;SDS011;6305;48.398;11.762;2022-10-16T04:50:13;15.07;;;9.57;;
12480;SDS011;6305;48.398;11.762;2022-10-16T04:52:39;16.88;;;9.98;;
12480;SDS011;6305;48.398;11.762;2022-10-16T04:55:06;13.65;;;9.07;;
12480;SDS011;6305;48.398;11.762;2022-10-16T04:57:34;16.23;;;9.50;;
12480;SDS011;6305;48.398;11.762;2022-10-16T05:00:00;17.52;;;9.80;;
12480;SDS011;6305;48.398;11.762;2022-10-16T05:02:28;16.33;;;9.23;;
12480;SDS011;6305;48.398;11.762;2022-10-16T05:04:56;15.75;;;9.68;;
12480;SDS011;6305;48.398;11.762;2022-10-16T05:07:23;15.10;;;9.55;;
12480;SDS011;6305;48.398;11.762;2022-10-16T05:09:49;15.60;;;9.35;;
12480;SDS011;6305;48.398;11.762;2022-10-16T05:12:16;14.82;;;9.00;;
12480;SDS011;6305;48.398;11.762;2022-10-16T05:14:43;15.13;;;9.25;;
12480;SDS011;6305;48.398;11.762;2022-10-16T05:17:10;15.90;;;9.32;;
12480;SDS011;6305;48.398;11.762;2022-10-16T05:19:37;14.88;;;9.63;;
12480;SDS011;6305;48.398;11.762;2022-10-16T05:22:05;13.52;;;9.10;;
12480;SDS011;6305;48.398;11.762;2022-10-16T05:24:31;16.40;;;9.57;;
12480;SDS011;6305;48.398;11.762;2022-10-16T05:26:58;13.70;;;8.70;;
12480;SDS011;6305;48.398;11.762;2022-10-16T05:29:25;14.77;;;9.13;;
12480;SDS011;6305;48.398;11.762;2022-10-16T05:31:52;11.93;;;7.97;;
12480;SDS011;6305;48.398;11.762;2022-10-16T05:34:19;14.02;;;8.10;;
12480;SDS011;6305;48.398;11.762;2022-10-16T05:36:46;11.32;;;8.18;;
12480;SDS011;6305;48.398;11.762;2022-10-16T05:39:15;12.25;;;7.53;;
12480;SDS011;6305;48.398;11.762;2022-10-16T05:41:42;12.27;;;7.70;;
12480;SDS011;6305;48.398;11.762;2022-10-16T05:44:09;14.32;;;8.40;;
12480;SDS011;6305;48.398;11.762;2022-10-16T05:46:36;13.57;;;7.68;;
12480;SDS011;6305;48.398;11.762;2022-10-16T05:49:03;9.77;;;7.32;;
12480;SDS011;6305;48.398;11.762;2022-10-16T05:51:29;11.35;;;7.63;;
12480;SDS011;6305;48.398;11.762;2022-10-16T05:53:56;12.10;;;7.68;;
12480;SDS011;6305;48.398;11.762;2022-10-16T05:56:24;11.65;;;7.75;;
12480;SDS011;6305;48.398;11.762;2022-10-16T05:58:51;13.82;;;7.88;;
12480;SDS011;6305;48.398;11.762;2022-10-16T06:01:18;15.55;;;7.93;;
12480;SDS011;6305;48.398;11.762;2022-10-16T06:03:46;10.73;;;7.05;;
12480;SDS011;6305;48.398;11.762;2022-10-16T06:06:13;12.50;;;8.00;;
12480;SDS011;6305;48.398;11.762;2022-10-16T06:08:41;12.95;;;8.55;;
12480;SDS011;6305;48.398;11.762;2022-10-16T06:11:11;18.63;;;10.65;;
12480;SDS011;6305;48.398;11.762;2022-10-16T06:13:40;25.67;;;14.55;;
12480;SDS011;6305;48.398;11.762;2022-10-16T06:16:08;20.60;;;12.63;;
12480;SDS011;6305;48.398;11.762;2022-10-16T06:18:35;19.60;;;11.30;;
12480;SDS011;6305;48.398;11.762;2022-10-16T06:23:50;17.02;;;11.07;;
12480;SDS011;6305;48.398;11.762;2022-10-16T06:26:18;23.50;;;12.90;;
12480;SDS011;6305;48.398;11.762;2022-10-16T06:28:48;25.50;;;14.88;;
12480;SDS011;6305;48.398;11.762;2022-10-16T06:31:15;23.08;;;11.70;;
12480;SDS011;6305;48.398;11.762;2022-10-16T06:33:42;19.60;;;11.23;;
12480;SDS011;6305;48.398;11.762;2022-10-16T06:36:11;19.70;;;11.40;;
12480;SDS011;6305;48.398;11.762;2022-10-16T06:38:40;15.13;;;9.25;;
12480;SDS011;6305;48.398;11.762;2022-10-16T06:41:07;14.27;;;7.07;;
12480;SDS011;6305;48.398;11.762;2022-10-16T06:43:37;11.27;;;6.75;;
12480;SDS011;6305;48.398;11.762;2022-10-16T06:46:06;12.70;;;7.93;;
12480;SDS011;6305;48.398;11.762;2022-10-16T06:48:35;11.93;;;7.40;;
12480;SDS011;6305;48.398;11.762;2022-10-16T06:51:03;9.98;;;6.63;;
12480;SDS011;6305;48.398;11.762;2022-10-16T06:53:32;12.05;;;7.53;;
12480;SDS011;6305;48.398;11.762;2022-10-16T06:56:06;12.80;;;8.25;;
12480;SDS011;6305;48.398;11.762;2022-10-16T06:58:33;11.40;;;8.32;;
12480;SDS011;6305;48.398;11.762;2022-10-16T07:01:00;12.25;;;7.80;;
12480;SDS011;6305;48.398;11.762;2022-10-16T07:03:28;10.27;;;7.00;;
12480;SDS011;6305;48.398;11.762;2022-10-16T07:05:55;7.13;;;5.47;;
12480;SDS011;6305;48.398;11.762;2022-10-16T07:08:22;6.55;;;4.72;;
12480;SDS011;6305;48.398;11.762;2022-10-16T07:10:49;7.65;;;4.25;;
12480;SDS011;6305;48.398;11.762;2022-10-16T07:13:24;6.13;;;4.10;;
12480;SDS011;6305;48.398;11.762;2022-10-16T07:15:51;8.98;;;4.72;;
12480;SDS011;6305;48.398;11.762;2022-10-16T07:18:18;5.20;;;4.05;;
12480;SDS011;6305;48.398;11.762;2022-10-16T07:20:46;5.78;;;5.00;;
12480;SDS011;6305;48.398;11.762;2022-10-16T07:23:13;7.28;;;5.25;;
12480;SDS011;6305;48.398;11.762;2022-10-16T07:25:40;12.85;;;6.88;;
12480;SDS011;6305;48.398;11.762;2022-10-16T07:28:06;6.13;;;5.18;;
12480;SDS011;6305;48.398;11.762;2022-10-16T07:30:34;5.32;;;4.82;;
12480;SDS011;6305;48.398;11.762;2022-10-16T07:33:02;11.63;;;9.98;;
12480;SDS011;6305;48.398;11.762;2022-10-16T07:35:28;5.47;;;4.07;;
12480;SDS011;6305;48.398;11.762;2022-10-16T07:37:57;3.90;;;2.78;;
12480;SDS011;6305;48.398;11.762;2022-10-16T07:40:24;4.45;;;2.83;;
12480;SDS011;6305;48.398;11.762;2022-10-16T07:42:52;2.83;;;2.55;;
12480;SDS011;6305;48.398;11.762;2022-10-16T07:45:19;3.47;;;2.30;;
12480;SDS011;6305;48.398;11.762;2022-10-16T07:47:45;2.30;;;2.10;;
12480;SDS011;6305;48.398;11.762;2022-10-16T07:50:12;1.90;;;1.67;;
12480;SDS011;6305;48.398;11.762;2022-10-16T07:52:39;2.75;;;1.58;;
12480;SDS011;6305;48.398;11.762;2022-10-16T07:55:08;3.13;;;2.10;;
12480;SDS011;6305;48.398;11.762;2022-10-16T07:57:35;4.15;;;3.05;;
12480;SDS011;6305;48.398;11.762;2022-10-16T08:00:02;2.47;;;2.05;;
12480;SDS011;6305;48.398;11.762;2022-10-16T08:02:29;7.22;;;2.25;;
12480;SDS011;6305;48.398;11.762;2022-10-16T08:04:57;5.57;;;2.10;;
12480;SDS011;6305;48.398;11.762;2022-10-16T08:07:23;4.00;;;3.00;;
12480;SDS011;6305;48.398;11.762;2022-10-16T08:09:50;5.88;;;4.00;;
12480;SDS011;6305;48.398;11.762;2022-10-16T08:12:19;2.03;;;1.50;;
12480;SDS011;6305;48.398;11.762;2022-10-16T08:14:45;2.13;;;1.65;;
12480;SDS011;6305;48.398;11.762;2022-10-16T08:17:13;2.92;;;1.50;;
12480;SDS011;6305;48.398;11.762;2022-10-16T08:19:43;2.00;;;1.48;;
12480;SDS011;6305;48.398;11.762;2022-10-16T08:22:11;3.58;;;1.52;;
12480;SDS011;6305;48.398;11.762;2022-10-16T08:24:37;1.73;;;1.63;;
12480;SDS011;6305;48.398;11.762;2022-10-16T08:27:04;1.63;;;1.40;;
12480;SDS011;6305;48.398;11.762;2022-10-16T08:29:33;3.45;;;1.73;;
12480;SDS011;6305;48.398;11.762;2022-10-16T08:31:59;2.63;;;1.50;;
12480;SDS011;6305;48.398;11.762;2022-10-16T08:34:26;3.40;;;1.58;;
12480;SDS011;6305;48.398;11.762;2022-10-16T08:36:53;1.58;;;1.48;;
12480;SDS011;6305;48.398;11.762;2022-10-16T08:39:20;2.75;;;1.30;;
12480;SDS011;6305;48.398;11.762;2022-10-16T08:41:52;3.53;;;1.58;;
12480;SDS011;6305;48.398;11.762;2022-10-16T08:44:47;2.47;;;1.52;;
12480;SDS011;6305;48.398;11.762;2022-10-16T08:47:32;2.50;;;1.58;;
12480;SDS011;6305;48.398;11.762;2022-10-16T08:50:09;1.58;;;1.48;;
12480;SDS011;6305;48.398;11.762;2022-10-16T08:52:39;3.67;;;1.50;;
12480;SDS011;6305;48.398;11.762;2022-10-16T08:55:10;1.67;;;1.52;;
12480;SDS011;6305;48.398;11.762;2022-10-16T08:57:50;3.13;;;1.50;;
12480;SDS011;6305;48.398;11.762;2022-10-16T09:00:18;2.10;;;1.70;;
12480;SDS011;6305;48.398;11.762;2022-10-16T09:02:49;1.40;;;1.30;;
12480;SDS011;6305;48.398;11.762;2022-10-16T09:05:26;2.03;;;1.33;;
12480;SDS011;6305;48.398;11.762;2022-10-16T09:08:17;1.60;;;1.40;;
12480;SDS011;6305;48.398;11.762;2022-10-16T09:10:55;1.65;;;1.20;;
12480;SDS011;6305;48.398;11.762;2022-10-16T09:13:26;2.88;;;1.30;;
12480;SDS011;6305;48.398;11.762;2022-10-16T09:16:01;1.40;;;1.23;;
12480;SDS011;6305;48.398;11.762;2022-10-16T09:18:40;3.10;;;2.10;;
12480;SDS011;6305;48.398;11.762;2022-10-16T09:21:13;1.55;;;1.45;;
12480;SDS011;6305;48.398;11.762;2022-10-16T09:23:44;1.67;;;1.33;;
12480;SDS011;6305;48.398;11.762;2022-10-16T09:26:12;2.05;;;1.83;;
12480;SDS011;6305;48.398;11.762;2022-10-16T09:28:41;1.73;;;1.35;;
12480;SDS011;6305;48.398;11.762;2022-10-16T09:31:12;2.42;;;1.33;;
12480;SDS011;6305;48.398;11.762;2022-10-16T09:33:42;5.22;;;1.92;;
12480;SDS011;6305;48.398;11.762;2022-10-16T09:36:11;1.88;;;1.48;;
12480;SDS011;6305;48.398;11.762;2022-10-16T09:38:40;2.30;;;1.40;;
12480;SDS011;6305;48.398;11.762;2022-10-16T09:41:12;1.83;;;1.30;;
12480;SDS011;6305;48.398;11.762;2022-10-16T09:43:46;3.88;;;1.70;;
12480;SDS011;6305;48.398;11.762;2022-10-16T09:46:24;2.83;;;1.40;;
12480;SDS011;6305;48.398;11.762;2022-10-16T09:48:54;4.45;;;1.60;;
12480;SDS011;6305;48.398;11.762;2022-10-16T09:51:23;1.80;;;1.20;;
12480;SDS011;6305;48.398;11.762;2022-10-16T09:53:54;2.30;;;1.23;;
12480;SDS011;6305;48.398;11.762;2022-10-16T09:56:23;2.15;;;1.60;;
12480;SDS011;6305;48.398;11.762;2022-10-16T09:58:51;2.95;;;1.48;;
12480;SDS011;6305;48.398;11.762;2022-10-16T10:01:19;3.47;;;1.60;;
12480;SDS011;6305;48.398;11.762;2022-10-16T10:03:49;2.05;;;1.33;;
12480;SDS011;6305;48.398;11.762;2022-10-16T10:06:19;3.78;;;1.30;;
12480;SDS011;6305;48.398;11.762;2022-10-16T10:08:53;1.45;;;1.35;;
12480;SDS011;6305;48.398;11.762;2022-10-16T10:11:38;2.10;;;1.40;;
12480;SDS011;6305;48.398;11.762;2022-10-16T10:14:14;1.92;;;1.38;;
12480;SDS011;6305;48.398;11.762;2022-10-16T10:16:44;3.70;;;1.52;;
12480;SDS011;6305;48.398;11.762;2022-10-16T10:19:14;1.40;;;1.30;;
12480;SDS011;6305;48.398;11.762;2022-10-16T10:21:42;2.30;;;1.52;;
12480;SDS011;6305;48.398;11.762;2022-10-16T10:24:12;1.85;;;1.30;;
12480;SDS011;6305;48.398;11.762;2022-10-16T10:26:41;2.00;;;1.40;;
12480;SDS011;6305;48.398;11.762;2022-10-16T10:29:17;1.67;;;1.20;;
12480;SDS011;6305;48.398;11.762;2022-10-16T10:31:54;4.40;;;1.70;;
12480;SDS011;6305;48.398;11.762;2022-10-16T10:34:33;2.97;;;1.45;;
12480;SDS011;6305;48.398;11.762;2022-10-16T10:37:22;2.00;;;1.40;;
12480;SDS011;6305;48.398;11.762;2022-10-16T10:40:01;2.15;;;1.30;;
12480;SDS011;6305;48.398;11.762;2022-10-16T10:42:36;1.38;;;1.20;;
12480;SDS011;6305;48.398;11.762;2022-10-16T10:45:18;3.30;;;1.30;;
12480;SDS011;6305;48.398;11.762;2022-10-16T10:47:56;2.60;;;1.30;;
12480;SDS011;6305;48.398;11.762;2022-10-16T10:50:35;2.50;;;1.65;;
12480;SDS011;6305;48.398;11.762;2022-10-16T10:53:09;2.72;;;1.40;;
12480;SDS011;6305;48.398;11.762;2022-10-16T10:55:45;1.42;;;1.33;;
12480;SDS011;6305;48.398;11.762;2022-10-16T10:58:41;1.67;;;1.33;;
12480;SDS011;6305;48.398;11.762;2022-10-16T11:01:30;2.67;;;1.30;;
12480;SDS011;6305;48.398;11.762;2022-10-16T11:04:08;3.28;;;1.40;;
12480;SDS011;6305;48.398;11.762;2022-10-16T11:06:51;2.85;;;1.27;;
12480;SDS011;6305;48.398;11.762;2022-10-16T11:09:23;3.88;;;1.50;;
12480;SDS011;6305;48.398;11.762;2022-10-16T11:11:54;2.53;;;1.38;;
12480;SDS011;6305;48.398;11.762;2022-10-16T11:14:25;1.52;;;1.27;;
12480;SDS011;6305;48.398;11.762;2022-10-16T11:16:56;2.50;;;1.30;;
12480;SDS011;6305;48.398;11.762;2022-10-16T11:19:30;1.40;;;1.30;;
12480;SDS011;6305;48.398;11.762;2022-10-16T11:22:07;1.52;;;1.42;;
12480;SDS011;6305;48.398;11.762;2022-10-16T11:24:42;1.85;;;1.38;;
12480;SDS011;6305;48.398;11.762;2022-10-16T11:27:14;3.05;;;1.50;;
12480;SDS011;6305;48.398;11.762;2022-10-16T11:29:45;1.40;;;1.30;;
12480;SDS011;6305;48.398;11.762;2022-10-16T11:32:20;2.35;;;1.30;;
12480;SDS011;6305;48.398;11.762;2022-10-16T11:34:50;1.40;;;1.27;;
12480;SDS011;6305;48.398;11.762;2022-10-16T11:37:24;2.72;;;1.52;;
12480;SDS011;6305;48.398;11.762;2022-10-16T11:39:56;1.58;;;1.48;;
12480;SDS011;6305;48.398;11.762;2022-10-16T11:42:32;2.15;;;1.55;;
12480;SDS011;6305;48.398;11.762;2022-10-16T11:45:07;1.40;;;1.30;;
12480;SDS011;6305;48.398;11.762;2022-10-16T11:47:43;2.55;;;1.50;;
12480;SDS011;6305;48.398;11.762;2022-10-16T11:50:13;1.35;;;1.25;;
12480;SDS011;6305;48.398;11.762;2022-10-16T11:52:51;1.45;;;1.20;;
12480;SDS011;6305;48.398;11.762;2022-10-16T11:55:26;1.35;;;1.25;;
12480;SDS011;6305;48.398;11.762;2022-10-16T11:57:57;1.73;;;1.40;;
12480;SDS011;6305;48.398;11.762;2022-10-16T12:00:29;1.65;;;1.33;;
12480;SDS011;6305;48.398;11.762;2022-10-16T12:03:03;1.50;;;1.35;;
12480;SDS011;6305;48.398;11.762;2022-10-16T12:05:43;1.90;;;1.50;;
12480;SDS011;6305;48.398;11.762;2022-10-16T12:08:22;2.08;;;1.50;;
12480;SDS011;6305;48.398;11.762;2022-10-16T12:10:50;1.48;;;1.35;;
12480;SDS011;6305;48.398;11.762;2022-10-16T12:13:28;2.63;;;1.20;;
12480;SDS011;6305;48.398;11.762;2022-10-16T12:16:05;1.88;;;1.02;;
12480;SDS011;6305;48.398;11.762;2022-10-16T12:18:45;1.45;;;1.27;;
12480;SDS011;6305;48.398;11.762;2022-10-16T12:21:13;1.30;;;1.20;;
12480;SDS011;6305;48.398;11.762;2022-10-16T12:23:47;2.30;;;1.20;;
12480;SDS011;6305;48.398;11.762;2022-10-16T12:26:23;1.00;;;0.90;;
12480;SDS011;6305;48.398;11.762;2022-10-16T12:28:51;1.00;;;1.00;;
12480;SDS011;6305;48.398;11.762;2022-10-16T12:31:18;1.30;;;1.00;;
12480;SDS011;6305;48.398;11.762;2022-10-16T12:33:52;1.90;;;0.90;;
12480;SDS011;6305;48.398;11.762;2022-10-16T12:36:26;2.00;;;0.90;;
12480;SDS011;6305;48.398;11.762;2022-10-16T12:38:57;3.15;;;1.00;;
12480;SDS011;6305;48.398;11.762;2022-10-16T12:41:26;1.50;;;0.93;;
12480;SDS011;6305;48.398;11.762;2022-10-16T12:43:54;1.52;;;0.90;;
12480;SDS011;6305;48.398;11.762;2022-10-16T12:46:23;2.17;;;0.82;;
12480;SDS011;6305;48.398;11.762;2022-10-16T12:49:22;1.08;;;0.90;;
12480;SDS011;6305;48.398;11.762;2022-10-16T12:51:55;0.90;;;0.77;;
12480;SDS011;6305;48.398;11.762;2022-10-16T12:54:25;1.83;;;0.90;;
12480;SDS011;6305;48.398;11.762;2022-10-16T12:56:58;1.48;;;0.80;;
12480;SDS011;6305;48.398;11.762;2022-10-16T12:59:38;2.40;;;0.90;;
12480;SDS011;6305;48.398;11.762;2022-10-16T13:05:13;0.95;;;0.93;;
12480;SDS011;6305;48.398;11.762;2022-10-16T13:07:53;0.70;;;0.70;;
12480;SDS011;6305;48.398;11.762;2022-10-16T13:10:33;0.73;;;0.70;;
12480;SDS011;6305;48.398;11.762;2022-10-16T13:13:16;2.13;;;0.90;;
12480;SDS011;6305;48.398;11.762;2022-10-16T13:15:58;0.70;;;0.70;;
12480;SDS011;6305;48.398;11.762;2022-10-16T13:18:39;0.73;;;0.70;;
12480;SDS011;6305;48.398;11.762;2022-10-16T13:21:18;2.40;;;0.70;;
12480;SDS011;6305;48.398;11.762;2022-10-16T13:24:00;0.70;;;0.70;;
12480;SDS011;6305;48.398;11.762;2022-10-16T13:26:36;0.82;;;0.70;;
12480;SDS011;6305;48.398;11.762;2022-10-16T13:29:09;0.70;;;0.70;;
12480;SDS011;6305;48.398;11.762;2022-10-16T13:31:36;0.70;;;0.70;;
12480;SDS011;6305;48.398;11.762;2022-10-16T13:34:04;1.52;;;0.70;;
12480;SDS011;6305;48.398;11.762;2022-10-16T13:36:42;2.13;;;0.90;;
12480;SDS011;6305;48.398;11.762;2022-10-16T13:39:11;2.10;;;0.90;;
12480;SDS011;6305;48.398;11.762;2022-10-16T13:41:41;0.95;;;0.85;;
12480;SDS011;6305;48.398;11.762;2022-10-16T13:44:12;1.10;;;1.00;;
12480;SDS011;6305;48.398;11.762;2022-10-16T13:46:43;1.23;;;0.88;;
12480;SDS011;6305;48.398;11.762;2022-10-16T13:49:12;0.95;;;0.90;;
12480;SDS011;6305;48.398;11.762;2022-10-16T13:51:40;1.70;;;0.70;;
12480;SDS011;6305;48.398;11.762;2022-10-16T13:54:09;0.93;;;0.80;;
12480;SDS011;6305;48.398;11.762;2022-10-16T13:56:38;1.48;;;0.75;;
12480;SDS011;6305;48.398;11.762;2022-10-16T13:59:21;1.38;;;0.85;;
12480;SDS011;6305;48.398;11.762;2022-10-16T14:01:49;0.70;;;0.70;;
12480;SDS011;6305;48.398;11.762;2022-10-16T14:04:20;1.58;;;0.93;;
12480;SDS011;6305;48.398;11.762;2022-10-16T14:06:49;0.93;;;0.70;;
12480;SDS011;6305;48.398;11.762;2022-10-16T14:09:19;0.80;;;0.75;;
12480;SDS011;6305;48.398;11.762;2022-10-16T14:11:49;0.80;;;0.80;;
12480;SDS011;6305;48.398;11.762;2022-10-16T14:14:18;1.20;;;0.90;;
12480;SDS011;6305;48.398;11.762;2022-10-16T14:16:46;0.95;;;0.77;;
12480;SDS011;6305;48.398;11.762;2022-10-16T14:19:14;0.77;;;0.77;;
12480;SDS011;6305;48.398;11.762;2022-10-16T14:21:46;0.68;;;0.68;;
12480;SDS011;6305;48.398;11.762;2022-10-16T14:24:14;2.60;;;0.80;;
12480;SDS011;6305;48.398;11.762;2022-10-16T14:26:51;1.27;;;0.82;;
12480;SDS011;6305;48.398;11.762;2022-10-16T14:29:21;3.08;;;1.00;;
12480;SDS011;6305;48.398;11.762;2022-10-16T14:31:55;0.70;;;0.70;;
12480;SDS011;6305;48.398;11.762;2022-10-16T14:34:27;2.33;;;1.20;;
12480;SDS011;6305;48.398;11.762;2022-10-16T14:36:58;1.13;;;1.02;;
12480;SDS011;6305;48.398;11.762;2022-10-16T14:39:27;2.83;;;0.90;;
12480;SDS011;6305;48.398;11.762;2022-10-16T14:41:55;0.80;;;0.73;;
12480;SDS011;6305;48.398;11.762;2022-10-16T14:44:27;4.68;;;0.73;;
12480;SDS011;6305;48.398;11.762;2022-10-16T14:46:56;1.90;;;1.00;;
12480;SDS011;6305;48.398;11.762;2022-10-16T14:49:24;3.63;;;1.35;;
12480;SDS011;6305;48.398;11.762;2022-10-16T14:51:53;1.20;;;0.75;;
12480;SDS011;6305;48.398;11.762;2022-10-16T14:54:20;3.08;;;1.00;;
12480;SDS011;6305;48.398;11.762;2022-10-16T14:56:47;1.23;;;0.80;;
12480;SDS011;6305;48.398;11.762;2022-10-16T14:59:17;3.85;;;3.22;;
12480;SDS011;6305;48.398;11.762;2022-10-16T15:01:56;1.15;;;0.95;;